createdAt,value
2023-02-13T00:04:58.914Z,80.19
2023-02-13T00:09:58.928Z,80.19
2023-02-13T00:14:58.772Z,80.54
2023-02-13T00:19:58.722Z,80.71
2023-02-13T00:24:58.681Z,80.51
2023-02-13T00:29:59.720Z,80.71
2023-02-13T00:34:58.576Z,80.44
2023-02-13T00:39:58.544Z,80.09
2023-02-13T00:44:58.440Z,79.79
2023-02-13T00:49:58.387Z,79.82
2023-02-13T00:54:58.376Z,79.82
2023-02-13T00:59:58.336Z,79.52
2023-02-13T01:04:58.238Z,79.27
2023-02-13T01:09:58.171Z,79.38
2023-02-13T01:14:58.176Z,78.56
2023-02-13T01:19:58.073Z,79.89
2023-02-13T01:24:58.126Z,79.31
2023-02-13T01:29:57.987Z,79.52
2023-02-13T01:34:57.974Z,79.21
2023-02-13T01:39:57.841Z,79.21
2023-02-13T01:44:57.826Z,79.41
2023-02-13T01:49:57.773Z,80.10
2023-02-13T01:54:58.773Z,79.24
2023-02-13T01:59:57.666Z,79.04
2023-02-13T02:04:57.627Z,79.49
2023-02-13T02:09:57.572Z,79.14
2023-02-13T02:14:57.483Z,79.66
2023-02-13T02:19:57.493Z,80.72
2023-02-13T02:24:57.472Z,80.00
2023-02-13T02:29:57.342Z,80.35
2023-02-13T02:34:57.392Z,80.00
2023-02-13T02:39:57.213Z,79.80
2023-02-13T02:44:57.201Z,79.59
2023-02-13T02:49:57.179Z,79.69
2023-02-13T02:54:58.247Z,79.49
2023-02-13T02:59:57.068Z,80.65
2023-02-13T03:04:58.016Z,80.55
2023-02-13T03:09:56.895Z,80.45
2023-02-13T03:14:56.861Z,79.80
2023-02-13T03:19:56.819Z,80.58
2023-02-13T03:24:56.721Z,80.38
2023-02-13T03:29:56.682Z,79.93
2023-02-13T03:34:56.622Z,79.93
2023-02-13T03:39:56.594Z,79.93
2023-02-13T03:44:57.548Z,81.16
2023-02-13T03:49:56.441Z,79.63
2023-02-13T03:54:56.420Z,80.28
2023-02-13T03:59:56.359Z,80.24
2023-02-13T04:04:59.678Z,80.76
2023-02-13T04:09:56.256Z,80.86
2023-02-13T04:14:56.199Z,80.55
2023-02-13T04:19:56.161Z,81.30
2023-02-13T04:24:56.113Z,80.55
2023-02-13T04:29:56.040Z,80.45
2023-02-13T04:34:56.022Z,80.76
2023-02-13T04:39:55.939Z,80.65
2023-02-13T04:44:56.008Z,81.78
2023-02-13T04:49:55.823Z,81.57
2023-02-13T04:54:55.942Z,80.76
2023-02-13T04:59:55.708Z,82.23
2023-02-13T05:04:55.654Z,81.62
2023-02-13T05:09:55.798Z,82.43
2023-02-13T05:14:55.544Z,82.13
2023-02-13T05:19:55.697Z,81.92
2023-02-13T05:24:56.630Z,81.82
2023-02-13T05:29:55.410Z,82.78
2023-02-13T05:34:55.396Z,83.50
2023-02-13T05:39:55.299Z,82.57
2023-02-13T05:44:55.352Z,83.03
2023-02-13T05:49:55.201Z,82.82
2023-02-13T05:54:55.866Z,83.27
2023-02-13T05:59:56.274Z,83.89
2023-02-13T06:04:55.115Z,82.76
2023-02-13T06:09:54.973Z,82.90
2023-02-13T06:14:54.915Z,84.48
2023-02-13T06:19:54.942Z,84.52
2023-02-13T06:24:54.826Z,85.14
2023-02-13T06:29:54.833Z,85.17
2023-02-13T06:34:54.709Z,85.59
2023-02-13T06:40:01.217Z,85.79
2023-02-13T06:44:54.667Z,85.22
2023-02-13T06:49:54.620Z,86.29
2023-02-13T06:54:54.531Z,87.48
2023-02-13T06:59:54.465Z,86.87
2023-02-13T07:04:54.403Z,87.01
2023-02-13T07:09:54.480Z,86.39
2023-02-13T07:14:54.300Z,85.87
2023-02-13T07:19:54.239Z,85.97
2023-02-13T07:24:54.188Z,86.32
2023-02-13T07:29:54.081Z,86.94
2023-02-13T07:35:01.591Z,87.87
2023-02-13T07:39:55.017Z,88.59
2023-02-13T07:44:53.944Z,88.18
2023-02-13T07:49:53.912Z,87.42
2023-02-13T07:54:53.941Z,86.97
2023-02-13T07:59:53.844Z,86.55
2023-02-13T08:04:54.828Z,86.87
2023-02-13T08:09:53.649Z,86.55
2023-02-13T08:14:53.666Z,86.15
2023-02-13T08:19:53.626Z,87.07
2023-02-13T08:24:53.604Z,87.92
2023-02-13T08:29:53.462Z,87.60
2023-02-13T08:34:53.422Z,86.54
2023-02-13T08:39:53.351Z,86.08
2023-02-13T08:44:53.319Z,85.39
2023-02-13T08:49:53.354Z,84.01
2023-02-13T08:54:53.221Z,83.15
2023-02-13T08:59:53.236Z,81.64
2023-02-13T09:04:53.201Z,81.36
2023-02-13T09:09:53.114Z,78.56
2023-02-13T09:14:53.005Z,77.09
2023-02-13T09:19:52.920Z,76.09
2023-02-13T09:24:52.865Z,73.81
2023-02-13T09:29:52.792Z,73.88
2023-02-13T09:34:52.811Z,72.62
2023-02-13T09:39:52.788Z,73.40
2023-02-13T09:44:52.708Z,72.14
2023-02-13T09:49:52.652Z,69.90
2023-02-13T09:54:52.511Z,68.84
2023-02-13T09:59:52.508Z,67.49
2023-02-13T10:04:52.533Z,67.02
2023-02-13T10:09:52.385Z,67.83
2023-02-13T10:14:52.335Z,67.12
2023-02-13T10:19:52.338Z,66.41
2023-02-13T10:24:52.191Z,65.46
2023-02-13T10:29:52.309Z,65.73
2023-02-13T10:34:52.230Z,64.72
2023-02-13T10:39:52.134Z,64.00
2023-02-13T10:44:52.032Z,63.26
2023-02-13T10:49:51.997Z,62.35
2023-02-13T10:54:51.952Z,62.62
2023-02-13T10:59:51.855Z,64.18
2023-02-13T11:04:51.839Z,62.46
2023-02-13T11:09:51.788Z,61.37
2023-02-13T11:14:51.675Z,60.33
2023-02-13T11:19:51.640Z,60.50
2023-02-13T11:24:51.540Z,59.48
2023-02-13T11:29:51.551Z,59.79
2023-02-13T11:34:51.478Z,59.79
2023-02-13T11:39:52.650Z,59.16
2023-02-13T11:44:51.371Z,59.28
2023-02-13T11:49:51.339Z,58.75
2023-02-13T11:54:51.221Z,59.26
2023-02-13T11:59:51.157Z,59.05
2023-02-13T12:04:51.099Z,58.72
2023-02-13T12:09:51.078Z,57.68
2023-02-13T12:14:52.047Z,58.49
2023-02-13T12:23:53.344Z,57.17
2023-02-13T12:29:16.627Z,58.36
2023-02-13T12:33:54.247Z,58.72
2023-02-13T12:39:08.849Z,59.53
2023-02-13T12:43:59.548Z,58.49
2023-02-13T12:49:04.156Z,58.49
2023-02-13T12:56:16.155Z,57.96
2023-02-13T13:01:11.914Z,58.09
2023-02-13T13:06:12.706Z,58.29
2023-02-13T13:11:39.298Z,58.72
2023-02-13T13:16:12.406Z,58.18
2023-02-13T13:21:11.772Z,58.72
2023-02-13T13:26:11.826Z,58.31
2023-02-13T13:31:18.658Z,58.49
2023-02-13T13:36:13.294Z,58.42
2023-02-13T13:41:11.362Z,58.42
2023-02-13T13:46:11.972Z,57.23
2023-02-13T13:51:11.741Z,57.20
2023-02-13T13:56:13.738Z,56.29
2023-02-13T14:01:29.151Z,56.05
2023-02-13T14:06:12.328Z,56.29
2023-02-13T14:11:11.075Z,55.98
2023-02-13T14:16:11.064Z,56.59
2023-02-13T14:21:10.939Z,57.12
2023-02-13T14:26:10.912Z,56.62
2023-02-13T14:31:10.892Z,57.03
2023-02-13T14:36:11.002Z,57.64
2023-02-13T14:41:10.912Z,57.71
2023-02-13T14:46:10.795Z,58.24
2023-02-13T14:51:10.679Z,59.66
2023-02-13T14:56:12.984Z,59.59
2023-02-13T15:01:10.832Z,59.77
2023-02-13T15:06:10.456Z,60.40
2023-02-13T15:11:10.536Z,59.99
2023-02-13T15:16:10.580Z,60.71
2023-02-13T15:21:12.505Z,61.34
2023-02-13T15:26:10.562Z,61.14
2023-02-13T15:31:10.489Z,61.65
2023-02-13T15:36:44.731Z,61.52
2023-02-13T15:41:10.132Z,61.93
2023-02-13T15:46:23.076Z,62.46
2023-02-13T15:51:09.981Z,62.76
2023-02-13T15:56:09.930Z,64.12
2023-02-13T16:01:17.977Z,65.57
2023-02-13T16:06:10.123Z,66.00
2023-02-13T16:11:09.892Z,67.66
2023-02-13T16:16:11.220Z,68.31
2023-02-13T16:21:09.838Z,68.31
2023-02-13T16:26:10.805Z,68.85
2023-02-13T16:31:09.874Z,68.10
2023-02-13T16:38:50.719Z,71.56
2023-02-13T16:43:52.063Z,71.19
2023-02-13T16:48:51.400Z,72.04
2023-02-13T16:54:00.046Z,71.94
2023-02-13T16:58:50.319Z,72.99
2023-02-13T17:03:51.332Z,73.64
2023-02-13T17:08:50.191Z,74.35
2023-02-13T17:13:51.131Z,74.49
2023-02-13T17:18:50.145Z,74.18
2023-02-13T17:23:49.984Z,76.09
2023-02-13T17:28:49.914Z,76.13
2023-02-13T17:33:49.874Z,76.34
2023-02-13T17:38:50.018Z,77.84
2023-02-13T17:43:49.826Z,78.90
2023-02-13T17:48:49.690Z,79.75
2023-02-13T17:53:49.699Z,80.17
2023-02-13T17:58:49.599Z,80.17
2023-02-13T18:03:49.523Z,80.41
2023-02-13T18:08:49.450Z,81.34
2023-02-13T18:13:49.385Z,80.41
2023-02-13T18:18:58.164Z,79.38
2023-02-13T18:23:49.299Z,82.54
2023-02-13T18:28:49.253Z,81.71
2023-02-13T18:33:49.133Z,81.86
2023-02-13T18:38:49.097Z,81.76
2023-02-13T18:43:49.337Z,82.71
2023-02-13T18:48:48.974Z,82.82
2023-02-13T18:53:48.894Z,81.93
2023-02-13T18:58:48.928Z,82.18
2023-02-13T19:03:48.853Z,83.51
2023-02-13T19:08:48.788Z,83.31
2023-02-13T19:13:48.727Z,83.45
2023-02-13T19:18:48.805Z,83.80
2023-02-13T19:23:48.589Z,84.31
2023-02-13T19:28:48.685Z,85.14
2023-02-13T19:33:48.518Z,84.25
2023-02-13T19:38:48.518Z,84.56
2023-02-13T19:43:48.392Z,83.98
2023-02-13T19:48:48.320Z,83.67
2023-02-13T19:53:48.371Z,84.43
2023-02-13T19:58:48.248Z,84.94
2023-02-13T20:03:48.181Z,84.39
2023-02-13T20:08:48.196Z,83.81
2023-02-13T20:13:48.083Z,83.44
2023-02-13T20:18:48.065Z,83.44
2023-02-13T20:23:47.997Z,83.33
2023-02-13T20:28:47.878Z,83.48
2023-02-13T20:33:47.809Z,83.17
2023-02-13T20:38:47.775Z,83.06
2023-02-13T20:43:47.713Z,83.06
2023-02-13T20:48:47.668Z,83.51
2023-02-13T20:53:47.632Z,83.51
2023-02-13T20:58:47.562Z,83.14
2023-02-13T21:03:47.533Z,83.97
2023-02-13T21:08:47.559Z,84.28
2023-02-13T21:13:47.396Z,84.69
2023-02-13T21:18:47.354Z,84.89
2023-02-13T21:23:47.286Z,84.63
2023-02-13T21:28:47.245Z,84.11
2023-02-13T21:33:47.299Z,84.56
2023-02-13T21:38:47.279Z,85.28
2023-02-13T21:43:47.058Z,85.91
2023-02-13T21:48:47.100Z,85.91
2023-02-13T21:53:46.995Z,86.49
2023-02-13T21:58:46.953Z,86.28
2023-02-13T22:03:46.922Z,86.18
2023-02-13T22:08:46.844Z,86.49
2023-02-13T22:13:46.804Z,86.18
2023-02-13T22:18:46.706Z,85.45
2023-02-13T22:23:46.711Z,85.80
2023-02-13T22:28:46.645Z,86.01
2023-02-13T22:33:52.390Z,86.73
2023-02-13T22:38:47.575Z,86.21
2023-02-13T22:43:46.509Z,86.11
2023-02-13T22:48:46.472Z,86.21
2023-02-13T22:53:47.492Z,87.35
2023-02-13T22:58:46.401Z,85.74
2023-02-13T23:03:46.256Z,86.67
2023-02-13T23:08:46.170Z,85.84
2023-02-13T23:13:48.332Z,87.29
2023-02-13T23:18:46.080Z,86.83
2023-02-13T23:23:46.048Z,86.83
2023-02-13T23:28:45.963Z,87.15
2023-02-13T23:33:45.924Z,86.21
2023-02-13T23:38:45.837Z,86.67
2023-02-13T23:43:45.799Z,86.67
2023-02-13T23:48:46.823Z,87.39
2023-02-13T23:53:45.736Z,87.93
2023-02-13T23:58:45.649Z,86.65
